Time;durP1;ratioP1;P1;durP2;ratioP2;P2;SDS_P1;SDS_P2;PMS_P1;PMS_P2;Temp;Humidity;BMP_temperature;BMP_pressure;BME280_temperature;BME280_humidity;BME280_pressure;Samples;Min_cycle;Max_cycle;Signal;HPM_P1;HPM_P2
2023/07/16 00:00:46;;;;;;;3.17;2.10;;;;;;;21.00;100.00;100133.97;5058972;28;20705;-74
2023/07/16 00:03:13;;;;;;;1.90;1.80;;;;;;;20.98;100.00;100135.84;5055163;28;20188;-74
2023/07/16 00:05:39;;;;;;;2.67;2.30;;;;;;;20.90;100.00;100124.91;5059985;28;20225;-73
2023/07/16 00:08:04;;;;;;;2.57;2.10;;;;;;;20.90;100.00;100131.94;5057936;28;20210;-74
2023/07/16 00:10:30;;;;;;;2.40;1.73;;;;;;;20.82;100.00;100117.44;5057817;28;20342;-73
2023/07/16 00:12:56;;;;;;;3.37;2.20;;;;;;;20.78;100.00;100108.00;5060518;28;20271;-72
2023/07/16 00:15:21;;;;;;;2.50;2.17;;;;;;;20.75;100.00;100108.19;5060437;28;20298;-74
2023/07/16 00:17:47;;;;;;;2.60;1.90;;;;;;;20.74;100.00;100105.59;5060764;28;20772;-73
2023/07/16 00:20:12;;;;;;;2.53;1.80;;;;;;;20.73;100.00;100062.66;5057196;28;20233;-73
2023/07/16 00:22:38;;;;;;;2.10;1.90;;;;;;;20.70;100.00;100076.84;5060956;28;20741;-73
2023/07/16 00:25:05;;;;;;;2.20;2.00;;;;;;;20.70;100.00;100091.78;5059040;28;20205;-74
2023/07/16 00:27:31;;;;;;;2.70;1.80;;;;;;;20.69;100.00;100106.69;5061607;28;20198;-73
2023/07/16 00:29:56;;;;;;;1.77;1.57;;;;;;;20.67;100.00;100087.53;5055502;28;20214;-73
2023/07/16 00:32:21;;;;;;;1.87;1.77;;;;;;;20.68;100.00;100107.63;5059837;28;20681;-73
2023/07/16 00:34:47;;;;;;;3.23;1.77;;;;;;;20.68;100.00;100105.00;5055963;28;20219;-74
2023/07/16 00:37:12;;;;;;;2.40;2.00;;;;;;;20.69;100.00;100109.31;5057425;28;20193;-73
2023/07/16 00:39:37;;;;;;;4.33;2.00;;;;;;;20.69;100.00;100109.31;5055297;28;20268;-73
2023/07/16 00:42:03;;;;;;;4.27;2.00;;;;;;;20.68;100.00;100135.72;5059753;28;20190;-73
2023/07/16 00:44:28;;;;;;;2.40;2.00;;;;;;;20.63;100.00;100146.50;5061907;28;20192;-72
2023/07/16 00:46:54;;;;;;;5.73;2.10;;;;;;;20.57;100.00;100157.31;5060920;28;20239;-73
2023/07/16 00:49:19;;;;;;;3.53;1.80;;;;;;;20.50;100.00;100145.41;5056872;28;20769;-74
2023/07/16 00:51:45;;;;;;;1.60;1.50;;;;;;;20.42;100.00;100140.56;5061922;28;20187;-73
2023/07/16 00:54:11;;;;;;;2.13;1.47;;;;;;;20.35;100.00;100141.81;5066433;28;20711;-73
2023/07/16 00:56:37;;;;;;;3.77;1.90;;;;;;;20.30;100.00;100149.97;5063872;28;20193;-73
2023/07/16 00:59:03;;;;;;;2.70;1.60;;;;;;;20.19;100.00;100149.66;5062328;28;20196;-73
2023/07/16 01:01:28;;;;;;;3.33;1.90;;;;;;;20.08;100.00;100158.94;5064711;28;20196;-73
2023/07/16 01:03:54;;;;;;;4.00;1.83;;;;;;;20.02;100.00;100161.88;5065208;28;20191;-73
2023/07/16 01:06:32;;;;;;;3.37;2.00;;;;;;;19.98;100.00;100162.94;5062732;28;20243;-74
2023/07/16 01:09:03;;;;;;;2.63;2.00;;;;;;;19.93;100.00;100178.94;5060189;28;20232;-74
2023/07/16 01:11:29;;;;;;;2.27;1.63;;;;;;;19.89;100.00;100155.56;5063147;28;20734;-73
2023/07/16 01:13:55;;;;;;;1.77;1.60;;;;;;;19.85;100.00;100135.59;5069621;28;20183;-73
2023/07/16 01:16:23;;;;;;;1.93;1.70;;;;;;;19.85;100.00;100135.59;5060123;28;20179;-73
2023/07/16 01:18:49;;;;;;;1.73;1.60;;;;;;;19.85;100.00;100152.19;5063654;28;20207;-74
2023/07/16 01:21:17;;;;;;;1.60;1.50;;;;;;;19.86;100.00;100124.16;5063152;28;20239;-73
2023/07/16 01:24:13;;;;;;;2.03;1.83;;;;;;;19.89;100.00;100145.88;5063859;28;20188;-74
2023/07/16 01:27:16;;;;;;;1.40;1.30;;;;;;;19.91;100.00;100135.28;5059464;28;20762;-73
2023/07/16 01:29:46;;;;;;;1.57;1.20;;;;;;;19.93;100.00;100130.81;5060099;28;20208;-73
2023/07/16 01:32:14;;;;;;;1.47;1.37;;;;;;;19.94;100.00;100145.66;5064531;28;20258;-73
2023/07/16 01:34:40;;;;;;;1.80;1.70;;;;;;;19.97;100.00;100142.88;5064585;28;20200;-74
2023/07/16 01:37:06;;;;;;;2.03;1.60;;;;;;;19.98;100.00;100139.31;5066079;28;20193;-73
2023/07/16 01:39:34;;;;;;;2.03;1.67;;;;;;;19.98;100.00;100151.59;5059105;28;20206;-74
2023/07/16 01:42:00;;;;;;;1.70;1.60;;;;;;;19.98;100.00;100155.06;5060795;28;20192;-74
2023/07/16 01:44:25;;;;;;;2.57;2.00;;;;;;;19.96;100.00;100162.19;5063543;28;20674;-74
2023/07/16 01:47:05;;;;;;;2.23;1.70;;;;;;;19.95;100.00;100165.72;5060782;28;20223;-73
2023/07/16 01:49:30;;;;;;;2.37;1.77;;;;;;;19.89;100.00;100174.78;5062773;28;20218;-74
2023/07/16 01:51:56;;;;;;;1.87;1.60;;;;;;;19.87;100.00;100174.00;5060782;28;20191;-74
2023/07/16 01:54:21;;;;;;;2.47;1.90;;;;;;;19.84;100.00;100178.53;5061826;28;20184;-73
2023/07/16 01:56:46;;;;;;;2.63;2.07;;;;;;;19.80;100.00;100194.41;5064661;28;20626;-74
2023/07/16 01:59:12;;;;;;;3.33;2.03;;;;;;;19.78;100.00;100185.75;5061362;28;20292;-74
2023/07/16 02:01:37;;;;;;;2.13;1.83;;;;;;;19.76;100.00;100182.34;5063081;28;20189;-73
2023/07/16 02:04:03;;;;;;;2.47;1.60;;;;;;;19.75;100.00;100185.06;5056402;28;20177;-74
2023/07/16 02:06:28;;;;;;;2.87;1.70;;;;;;;19.74;100.00;100188.63;5064767;28;20184;-73
2023/07/16 02:08:53;;;;;;;2.27;1.70;;;;;;;19.70;100.00;100189.69;5062703;28;20283;-73
2023/07/16 02:11:18;;;;;;;1.83;1.60;;;;;;;19.68;100.00;100202.03;5064106;28;20189;-74
2023/07/16 02:13:44;;;;;;;2.33;1.50;;;;;;;19.65;100.00;100195.16;5062502;28;20678;-73
2023/07/16 02:16:09;;;;;;;2.83;1.80;;;;;;;19.66;100.00;100196.88;5061936;28;20200;-73
2023/07/16 02:18:34;;;;;;;2.10;1.90;;;;;;;19.62;100.00;100206.69;5058360;28;20206;-74
2023/07/16 02:21:02;;;;;;;1.97;1.87;;;;;;;19.63;100.00;100212.75;5064935;28;20626;-73
2023/07/16 02:23:27;;;;;;;2.60;1.70;;;;;;;19.63;100.00;100218.88;5061868;28;20182;-73
2023/07/16 02:25:52;;;;;;;3.73;1.97;;;;;;;19.63;100.00;100212.75;5061721;28;20206;-72
2023/07/16 02:28:17;;;;;;;1.60;1.50;;;;;;;19.63;100.00;100207.50;5061486;28;20252;-73
2023/07/16 02:30:43;;;;;;;1.70;1.60;;;;;;;19.63;100.00;100220.63;5062321;28;20871;-73
2023/07/16 02:33:08;;;;;;;1.63;1.53;;;;;;;19.63;100.00;100231.13;5062713;28;20691;-72
2023/07/16 02:35:33;;;;;;;2.97;1.73;;;;;;;19.60;100.00;100236.53;5064667;28;20220;-73
2023/07/16 02:37:59;;;;;;;2.23;1.90;;;;;;;19.58;100.00;100231.38;5063055;28;20664;-73
2023/07/16 02:40:24;;;;;;;3.10;1.67;;;;;;;19.54;100.00;100232.44;5062848;28;20210;-73
2023/07/16 02:42:49;;;;;;;3.47;2.27;;;;;;;19.52;100.00;100231.63;5062954;28;20211;-73
2023/07/16 02:45:15;;;;;;;1.87;1.77;;;;;;;19.49;100.00;100231.81;5064476;28;20276;-72
2023/07/16 02:47:40;;;;;;;3.80;1.90;;;;;;;19.43;100.00;100230.31;5073090;28;20182;-73
2023/07/16 02:50:06;;;;;;;3.27;2.07;;;;;;;19.40;100.00;100238.34;5065111;28;20239;-73
2023/07/16 02:52:31;;;;;;;1.97;1.80;;;;;;;19.33;100.00;100237.78;5060468;28;20265;-74
2023/07/16 02:54:57;;;;;;;2.40;1.87;;;;;;;19.30;100.00;100234.41;5058195;28;20178;-73
2023/07/16 02:57:22;;;;;;;4.73;1.87;;;;;;;19.27;100.00;100232.81;5059633;28;20272;-74
2023/07/16 02:59:48;;;;;;;2.23;1.93;;;;;;;19.19;100.00;100237.56;5062648;28;20220;-72
2023/07/16 03:02:13;;;;;;;2.83;1.70;;;;;;;19.11;100.00;100256.28;5063855;28;20668;-73
2023/07/16 03:04:38;;;;;;;2.63;1.60;;;;;;;19.07;100.00;100241.59;5062943;28;20269;-73
2023/07/16 03:07:04;;;;;;;3.00;1.83;;;;;;;19.05;100.00;100238.19;5060032;28;20964;-72
2023/07/16 03:09:30;;;;;;;3.00;1.80;;;;;;;18.98;100.00;100242.00;5058529;28;20217;-73
2023/07/16 03:11:55;;;;;;;1.97;1.73;;;;;;;18.95;100.00;100236.91;5058041;28;20182;-73
2023/07/16 03:14:20;;;;;;;2.30;2.10;;;;;;;18.91;100.00;100235.28;5057280;28;20672;-73
2023/07/16 03:16:45;;;;;;;2.40;1.67;;;;;;;18.86;100.00;100230.25;5058936;28;20532;-72
2023/07/16 03:19:11;;;;;;;2.00;1.57;;;;;;;18.82;100.00;100237.41;5066609;28;20338;-73
2023/07/16 03:21:36;;;;;;;2.00;1.87;;;;;;;18.82;100.00;100237.41;5064501;28;20241;-72
2023/07/16 03:24:01;;;;;;;2.00;1.80;;;;;;;18.84;100.00;100239.97;5061321;28;20208;-72
2023/07/16 03:26:27;;;;;;;1.90;1.60;;;;;;;18.84;100.00;100238.19;5059596;28;20230;-73
2023/07/16 03:28:52;;;;;;;1.70;1.60;;;;;;;18.87;100.00;100242.44;5066035;28;20207;-72
2023/07/16 03:31:17;;;;;;;1.63;1.53;;;;;;;18.87;100.00;100240.66;5062873;28;20185;-72
2023/07/16 03:33:43;;;;;;;2.20;1.50;;;;;;;18.88;100.00;100262.50;5061501;28;20176;-73
2023/07/16 03:36:08;;;;;;;2.50;1.57;;;;;;;18.90;100.00;100265.91;5062544;28;20185;-73
2023/07/16 03:38:33;;;;;;;2.57;1.97;;;;;;;18.92;100.00;100265.84;5065280;28;20187;-72
2023/07/16 03:40:58;;;;;;;3.57;1.80;;;;;;;18.94;100.00;100279.75;5062401;28;20337;-72
2023/07/16 03:43:24;;;;;;;2.20;2.00;;;;;;;18.93;100.00;100280.66;5057351;28;20224;-73
2023/07/16 03:45:49;;;;;;;2.53;1.90;;;;;;;18.97;100.00;100279.66;5059015;28;20193;-74
2023/07/16 03:48:15;;;;;;;2.70;1.70;;;;;;;18.98;100.00;100289.22;5061213;28;20214;-73
2023/07/16 03:50:40;;;;;;;2.07;1.60;;;;;;;18.99;100.00;100296.13;5058742;28;20290;-73
2023/07/16 03:53:06;;;;;;;1.83;1.50;;;;;;;19.00;100.00;100292.59;5059221;28;20189;-73
2023/07/16 03:55:31;;;;;;;2.20;1.63;;;;;;;19.06;100.00;100300.22;5050040;28;20189;-74
2023/07/16 03:57:57;;;;;;;1.70;1.57;;;;;;;19.03;100.00;100297.72;5063182;28;20854;-74
2023/07/16 04:00:23;;;;;;;1.93;1.77;;;;;;;19.05;100.00;100295.88;5054972;28;20217;-74
2023/07/16 04:02:48;;;;;;;2.43;1.70;;;;;;;19.07;100.00;100291.41;5062326;28;20240;-73
2023/07/16 04:05:13;;;;;;;2.93;1.80;;;;;;;19.11;100.00;100300.00;5056641;28;20684;-74
2023/07/16 04:07:39;;;;;;;2.00;1.80;;;;;;;19.12;100.00;100305.19;5059957;28;20913;-74
2023/07/16 04:10:05;;;;;;;2.37;2.03;;;;;;;19.11;100.00;100300.88;5060735;28;20244;-74
2023/07/16 04:12:30;;;;;;;2.90;2.03;;;;;;;19.08;100.00;100306.25;5060946;28;20280;-74
2023/07/16 04:14:57;;;;;;;1.57;1.43;;;;;;;19.08;100.00;100295.75;5061561;28;20189;-74
2023/07/16 04:17:23;;;;;;;1.47;1.33;;;;;;;19.06;100.00;100302.81;5058273;28;20187;-73
2023/07/16 04:19:49;;;;;;;3.93;2.10;;;;;;;19.09;100.00;100315.81;5062459;28;20228;-73
2023/07/16 04:22:14;;;;;;;2.83;1.80;;;;;;;19.10;100.00;100324.53;5059554;28;20232;-74
2023/07/16 04:24:39;;;;;;;1.83;1.70;;;;;;;19.09;100.00;100318.44;5056661;28;20249;-74
2023/07/16 04:27:05;;;;;;;2.00;1.80;;;;;;;19.06;100.00;100317.72;5061167;28;20275;-73
2023/07/16 04:29:30;;;;;;;1.90;1.63;;;;;;;19.07;100.00;100329.91;5062515;28;21009;-74
2023/07/16 04:31:56;;;;;;;3.03;1.80;;;;;;;19.10;100.00;100335.00;5059147;28;20601;-73
2023/07/16 04:34:21;;;;;;;3.93;1.80;;;;;;;19.13;100.00;100335.75;5059761;28;21008;-74
2023/07/16 04:36:46;;;;;;;2.27;1.87;;;;;;;19.17;100.00;100342.53;5058619;28;20269;-74
2023/07/16 04:39:12;;;;;;;4.00;2.40;;;;;;;19.17;100.00;100339.91;5058122;28;20779;-75
2023/07/16 04:41:37;;;;;;;2.93;1.87;;;;;;;19.17;100.00;100345.16;5060328;28;20216;-74
2023/07/16 04:44:02;;;;;;;3.90;1.87;;;;;;;19.19;100.00;100345.97;5063262;28;20262;-72
2023/07/16 04:46:30;;;;;;;2.90;1.77;;;;;;;19.23;100.00;100343.22;5057808;28;20193;-73
2023/07/16 04:48:55;;;;;;;2.07;1.80;;;;;;;19.24;100.00;100343.13;5065279;28;20199;-72
2023/07/16 04:51:20;;;;;;;2.63;2.13;;;;;;;19.30;100.00;100357.75;5058534;28;20244;-73
2023/07/16 04:53:45;;;;;;;2.23;2.00;;;;;;;19.33;100.00;100358.47;5056690;28;20220;-74
2023/07/16 04:56:15;;;;;;;3.23;2.17;;;;;;;19.38;100.00;100366.13;5054583;28;20298;-74
2023/07/16 04:58:40;;;;;;;2.33;1.67;;;;;;;19.40;100.00;100358.19;5060677;28;20193;-74
2023/07/16 05:01:10;;;;;;;1.60;1.40;;;;;;;19.43;100.00;100358.06;5060140;28;20222;-74
2023/07/16 05:03:36;;;;;;;1.77;1.67;;;;;;;19.46;100.00;100353.50;5067991;28;20197;-74
2023/07/16 05:06:02;;;;;;;3.33;2.00;;;;;;;19.44;100.00;100360.59;5066462;28;20198;-74
2023/07/16 05:08:27;;;;;;;3.10;1.87;;;;;;;19.44;100.00;100355.34;5059959;28;20212;-73
2023/07/16 05:10:52;;;;;;;3.10;1.80;;;;;;;19.42;100.00;100356.34;5055808;28;20216;-74
2023/07/16 05:13:18;;;;;;;2.17;1.87;;;;;;;19.43;100.00;100369.41;5058588;28;20189;-75
2023/07/16 05:15:44;;;;;;;2.60;1.70;;;;;;;19.73;100.00;100362.84;5065864;28;20195;-74
2023/07/16 05:18:09;;;;;;;2.30;1.70;;;;;;;19.98;100.00;100362.56;5067315;28;20758;-75
2023/07/16 05:20:34;;;;;;;1.80;1.70;;;;;;;20.34;100.00;100360.88;5062293;28;20209;-74
2023/07/16 05:22:59;;;;;;;3.77;1.63;;;;;;;20.49;100.00;100364.56;5056662;28;20192;-74
2023/07/16 05:25:25;;;;;;;1.97;1.20;;;;;;;20.47;100.00;100361.97;5053633;28;20328;-74
2023/07/16 05:27:50;;;;;;;2.40;1.60;;;;;;;20.41;100.00;100368.41;5060759;28;20928;-73
2023/07/16 05:30:16;;;;;;;2.63;1.40;;;;;;;20.33;100.00;100360.03;5055337;28;20213;-71
2023/07/16 05:32:41;;;;;;;3.50;1.70;;;;;;;20.23;100.00;100362.25;5057968;28;20911;-72
2023/07/16 05:35:07;;;;;;;2.87;1.57;;;;;;;20.13;100.00;100360.97;5059784;28;20966;-73
2023/07/16 05:37:32;;;;;;;1.73;1.63;;;;;;;20.09;100.00;100373.41;5063813;28;20189;-74
2023/07/16 05:39:58;;;;;;;2.60;1.83;;;;;;;20.00;100.00;100373.88;5061982;28;20900;-72
2023/07/16 05:42:23;;;;;;;2.60;1.50;;;;;;;20.00;100.00;100379.13;5061050;28;20204;-75
2023/07/16 05:44:48;;;;;;;2.00;1.80;;;;;;;19.99;100.00;100382.66;5065323;28;20230;-73
2023/07/16 05:47:13;;;;;;;1.80;1.30;;;;;;;20.02;100.00;100373.78;5064437;28;20243;-73
2023/07/16 05:49:39;;;;;;;2.40;1.57;;;;;;;20.04;100.00;100378.03;5063239;28;20216;-74
2023/07/16 05:52:05;;;;;;;1.93;1.57;;;;;;;20.05;100.00;100371.84;5057262;28;20185;-74
2023/07/16 05:54:31;;;;;;;2.10;1.47;;;;;;;20.13;100.00;100381.16;5063154;28;20197;-72
2023/07/16 05:56:56;;;;;;;1.73;1.33;;;;;;;20.25;100.00;100378.81;5056256;28;20655;-73
2023/07/16 05:59:22;;;;;;;2.73;1.50;;;;;;;20.43;100.00;100380.59;5059492;28;20210;-72
2023/07/16 06:01:47;;;;;;;3.90;1.77;;;;;;;21.01;100.00;100375.09;5062130;28;20200;-73
2023/07/16 06:04:13;;;;;;;2.53;1.53;;;;;;;21.91;100.00;100380.91;5059920;28;20186;-73
2023/07/16 06:06:38;;;;;;;2.37;1.43;;;;;;;22.70;100.00;100380.94;5058951;28;20653;-72
2023/07/16 06:09:04;;;;;;;1.87;1.10;;;;;;;23.64;98.58;100382.38;5060859;28;20217;-71
2023/07/16 06:11:29;;;;;;;1.73;1.30;;;;;;;24.41;94.37;100381.09;5068313;28;20658;-72
2023/07/16 06:13:55;;;;;;;2.40;1.40;;;;;;;24.75;88.55;100386.81;5062169;28;20218;-72
2023/07/16 06:16:20;;;;;;;1.80;1.30;;;;;;;25.45;88.30;100379.44;5061002;28;20185;-72
2023/07/16 06:18:45;;;;;;;2.27;1.50;;;;;;;25.61;86.54;100380.06;5063746;28;20184;-72
2023/07/16 06:21:11;;;;;;;1.80;1.33;;;;;;;26.33;84.26;100389.91;5058855;28;20222;-72
2023/07/16 06:23:36;;;;;;;2.50;1.33;;;;;;;26.74;78.64;100379.81;5062642;28;20195;-73
2023/07/16 06:26:02;;;;;;;1.98;1.27;;;;;;;26.89;80.56;100385.81;5061247;28;20180;-73
2023/07/16 06:28:27;;;;;;;1.65;1.30;;;;;;;27.36;79.20;100382.25;5063784;28;20209;-72
2023/07/16 06:30:52;;;;;;;1.40;1.10;;;;;;;27.54;75.16;100386.13;5062337;28;20721;-73
2023/07/16 06:33:18;;;;;;;2.55;1.30;;;;;;;26.91;75.55;100383.03;5062150;28;20565;-73
2023/07/16 06:35:46;;;;;;;2.33;1.45;;;;;;;26.75;75.77;100386.81;5059425;28;20194;-72
2023/07/16 06:38:11;;;;;;;4.07;2.17;;;;;;;26.27;78.40;100397.47;5061249;28;20186;-74
2023/07/16 06:40:37;;;;;;;3.55;1.40;;;;;;;25.92;79.68;100398.25;5060747;28;20496;-73
2023/07/16 06:43:03;;;;;;;2.63;1.55;;;;;;;25.69;79.18;100401.56;5061720;28;20545;-72
2023/07/16 06:45:28;;;;;;;2.50;1.42;;;;;;;25.87;79.86;100409.16;5053885;28;20189;-72
2023/07/16 06:47:53;;;;;;;2.78;1.50;;;;;;;25.41;78.66;100402.63;5063721;28;20186;-72
2023/07/16 06:50:19;;;;;;;2.43;1.37;;;;;;;25.45;79.30;100412.09;5058309;28;20793;-72
2023/07/16 06:52:44;;;;;;;2.10;1.57;;;;;;;25.60;78.94;100396.91;5061253;28;20186;-73
2023/07/16 06:55:09;;;;;;;2.10;1.40;;;;;;;25.26;80.33;100405.38;5060981;28;20189;-72
2023/07/16 06:57:35;;;;;;;3.40;1.60;;;;;;;25.19;80.25;100403.28;5061552;28;20187;-72
2023/07/16 07:00:00;;;;;;;3.47;1.70;;;;;;;24.94;81.69;100410.25;5060788;28;20201;-73
2023/07/16 07:02:25;;;;;;;2.20;1.80;;;;;;;25.17;82.02;100395.44;5059277;28;20723;-71
2023/07/16 07:04:51;;;;;;;3.13;1.50;;;;;;;25.55;80.40;100396.41;5060634;28;20577;-72
2023/07/16 07:07:17;;;;;;;3.37;1.40;;;;;;;26.23;79.03;100404.00;5059416;28;21040;-72
2023/07/16 07:09:42;;;;;;;2.40;1.63;;;;;;;26.78;78.10;100405.19;5063591;28;20217;-73
2023/07/16 07:12:08;;;;;;;2.40;1.40;;;;;;;27.18;77.23;100401.31;5062725;28;20185;-73
2023/07/16 07:14:33;;;;;;;2.03;1.38;;;;;;;27.00;75.37;100403.56;5065354;28;20198;-72
2023/07/16 07:16:59;;;;;;;3.75;1.90;;;;;;;27.22;74.08;100413.41;5058531;28;20688;-73
2023/07/16 07:19:24;;;;;;;2.25;1.35;;;;;;;27.48;73.71;100407.88;5059264;28;20688;-73
2023/07/16 07:21:49;;;;;;;1.42;1.33;;;;;;;27.35;73.80;100410.63;5062753;28;20707;-72
2023/07/16 07:24:15;;;;;;;2.70;1.58;;;;;;;27.30;73.66;100415.44;5063146;28;20269;-73
2023/07/16 07:26:40;;;;;;;2.88;1.42;;;;;;;27.38;72.34;100417.50;5055429;28;20248;-73
2023/07/16 07:29:05;;;;;;;2.00;1.40;;;;;;;27.49;71.88;100420.22;5060245;28;20968;-73
2023/07/16 07:31:31;;;;;;;3.15;1.50;;;;;;;27.21;72.06;100411.72;5054632;28;20676;-73
2023/07/16 07:33:57;;;;;;;3.55;1.92;;;;;;;26.89;73.46;100422.13;5060763;28;20189;-75
2023/07/16 07:36:23;;;;;;;2.05;1.23;;;;;;;26.86;74.32;100430.31;5053973;28;20182;-75
2023/07/16 07:38:48;;;;;;;1.93;1.30;;;;;;;26.88;73.99;100426.59;5049621;28;20182;-74
2023/07/16 07:41:14;;;;;;;2.78;1.60;;;;;;;27.05;72.96;100421.81;5045547;28;20214;-73
2023/07/16 07:43:39;;;;;;;3.83;1.50;;;;;;;26.47;74.45;100427.88;5054267;28;20195;-74
2023/07/16 07:46:05;;;;;;;2.63;1.70;;;;;;;26.17;75.71;100435.31;5051957;28;20604;-72
2023/07/16 07:48:31;;;;;;;3.70;1.57;;;;;;;25.64;76.60;100422.25;5050989;28;20213;-74
2023/07/16 07:50:56;;;;;;;3.10;1.90;;;;;;;25.56;78.05;100428.09;5052074;28;20209;-74
2023/07/16 07:53:22;;;;;;;2.80;1.70;;;;;;;25.63;78.70;100420.56;5057462;28;20190;-74
2023/07/16 07:55:47;;;;;;;3.33;1.90;;;;;;;25.61;78.26;100419.81;5050232;28;20203;-73
2023/07/16 07:58:12;;;;;;;3.50;1.70;;;;;;;25.92;78.92;100422.09;5052033;28;20821;-73
2023/07/16 08:00:38;;;;;;;5.53;1.50;;;;;;;25.94;79.26;100428.13;5051737;28;20210;-74
2023/07/16 08:03:04;;;;;;;2.75;1.55;;;;;;;26.38;78.61;100428.53;5055680;28;20194;-74
2023/07/16 08:05:29;;;;;;;3.85;1.70;;;;;;;26.35;76.15;100424.31;5055833;28;20181;-74
2023/07/16 08:07:55;;;;;;;1.90;1.40;;;;;;;26.57;74.50;100438.63;5045967;28;20213;-73
2023/07/16 08:10:21;;;;;;;2.17;1.55;;;;;;;26.32;75.55;100429.84;5050575;28;20275;-73
2023/07/16 08:12:47;;;;;;;3.22;1.88;;;;;;;26.35;75.00;100432.28;5047310;28;20670;-74
2023/07/16 08:15:15;;;;;;;3.88;1.90;;;;;;;26.35;74.86;100424.31;5061615;28;20194;-73
2023/07/16 08:17:45;;;;;;;3.20;1.50;;;;;;;26.72;73.77;100413.59;5056576;28;20216;-73
2023/07/16 08:20:11;;;;;;;3.03;1.83;;;;;;;26.80;73.96;100414.88;5056701;28;20275;-73
2023/07/16 08:22:38;;;;;;;2.78;1.50;;;;;;;26.74;74.05;100402.88;5061250;28;20186;-73
2023/07/16 08:25:04;;;;;;;4.72;1.83;;;;;;;27.09;73.88;100399.34;5059477;28;20192;-74
2023/07/16 08:27:30;;;;;;;2.70;2.00;;;;;;;26.93;73.75;100407.66;5056153;28;20189;-74
2023/07/16 08:29:56;;;;;;;1.95;1.45;;;;;;;27.25;73.68;100412.31;5059055;28;20959;-73
2023/07/16 08:32:23;;;;;;;5.90;2.85;;;;;;;26.94;74.04;100414.66;5052633;28;20539;-73
2023/07/16 08:34:48;;;;;;;3.08;2.00;;;;;;;27.16;73.39;100408.56;5054026;28;20181;-74
2023/07/16 08:37:14;;;;;;;3.40;1.77;;;;;;;27.58;73.58;100415.13;5054105;28;20928;-73
2023/07/16 08:39:40;;;;;;;4.50;3.45;;;;;;;27.31;72.66;100403.84;5051660;28;20686;-74
2023/07/16 08:42:06;;;;;;;3.80;2.97;;;;;;;27.06;72.76;100403.09;5051599;28;20646;-72
2023/07/16 08:44:32;;;;;;;3.53;3.15;;;;;;;27.36;70.99;100409.66;5052610;28;20186;-73
2023/07/16 08:46:57;;;;;;;5.38;3.28;;;;;;;26.95;72.80;100411.06;5051626;28;20271;-72
2023/07/16 08:49:23;;;;;;;3.20;1.80;;;;;;;26.88;72.52;100423.09;5054666;28;20393;-72
2023/07/16 08:51:49;;;;;;;3.10;1.73;;;;;;;26.70;71.18;100414.69;5047771;28;20190;-72
2023/07/16 08:54:19;;;;;;;3.45;1.65;;;;;;;26.80;71.29;100421.00;5050069;28;21663;-73
2023/07/16 08:56:45;;;;;;;2.38;1.55;;;;;;;27.11;71.12;100415.19;5047988;28;20194;-72
2023/07/16 08:59:11;;;;;;;3.17;1.27;;;;;;;27.27;70.57;100423.66;5057241;28;20197;-72
2023/07/16 09:01:37;;;;;;;1.83;1.40;;;;;;;27.29;70.36;100426.19;5048404;28;20202;-72
2023/07/16 09:04:03;;;;;;;1.70;1.47;;;;;;;27.24;70.68;100427.38;5050111;28;20422;-72
2023/07/16 09:06:28;;;;;;;1.70;1.60;;;;;;;27.06;70.58;100423.53;5053561;28;20564;-71
2023/07/16 09:08:55;;;;;;;3.57;1.80;;;;;;;26.97;70.03;100421.53;5067019;28;20214;-72
2023/07/16 09:11:21;;;;;;;2.60;1.80;;;;;;;26.79;69.25;100419.31;5083286;28;20212;-73
2023/07/16 09:13:47;;;;;;;1.90;1.57;;;;;;;26.71;69.15;100425.19;5066010;28;20242;-72
2023/07/16 09:16:16;;;;;;;3.30;1.93;;;;;;;26.70;69.30;100420.00;5063546;28;20263;-72
2023/07/16 09:18:42;;;;;;;3.13;2.10;;;;;;;26.62;68.79;100415.25;5061399;28;20381;-72
2023/07/16 09:21:07;;;;;;;4.20;2.13;;;;;;;26.63;67.90;100422.25;5066349;28;20725;-72
2023/07/16 09:23:34;;;;;;;5.97;2.10;;;;;;;26.32;68.08;100421.88;5064659;28;20186;-73
2023/07/16 09:25:59;;;;;;;4.17;2.40;;;;;;;25.91;68.87;100423.06;5063703;28;20182;-72
2023/07/16 09:28:25;;;;;;;3.03;2.13;;;;;;;25.80;68.91;100424.66;5066255;28;20202;-72
2023/07/16 09:30:51;;;;;;;2.40;1.70;;;;;;;26.07;68.40;100434.25;5063168;28;20205;-72
2023/07/16 09:33:22;;;;;;;4.27;1.93;;;;;;;26.30;67.75;100427.31;5064017;28;20204;-72
2023/07/16 09:35:49;;;;;;;3.77;2.10;;;;;;;26.58;66.93;100422.59;5063576;28;20189;-72
2023/07/16 09:38:15;;;;;;;4.00;2.37;;;;;;;26.67;67.31;100414.91;5062957;28;20673;-73
2023/07/16 09:40:42;;;;;;;5.27;2.10;;;;;;;26.70;67.00;100415.50;5062702;28;20233;-72
2023/07/16 09:43:08;;;;;;;2.60;1.90;;;;;;;26.83;66.63;100425.25;5063913;28;20186;-72
2023/07/16 09:45:34;;;;;;;3.30;1.63;;;;;;;26.84;65.46;100430.44;5062168;28;20247;-72
2023/07/16 09:47:59;;;;;;;3.17;2.00;;;;;;;26.84;65.85;100424.31;5063608;28;20185;-72
2023/07/16 09:50:28;;;;;;;3.63;2.00;;;;;;;26.75;66.67;100426.66;5062173;28;20194;-72
2023/07/16 09:52:55;;;;;;;3.00;1.77;;;;;;;26.73;66.18;100430.38;5063005;28;20228;-73
2023/07/16 09:55:22;;;;;;;3.37;1.90;;;;;;;26.91;65.13;100438.78;5062896;28;20193;-73
2023/07/16 09:57:50;;;;;;;5.20;2.00;;;;;;;27.04;64.76;100433.41;5065178;28;20181;-72
2023/07/16 10:00:17;;;;;;;2.17;1.70;;;;;;;27.02;64.52;100427.38;5063281;28;20210;-72
2023/07/16 10:02:44;;;;;;;3.60;2.03;;;;;;;26.80;63.91;100428.16;5063884;28;20186;-72
2023/07/16 10:05:17;;;;;;;3.30;2.13;;;;;;;26.89;65.30;100428.31;5062892;28;20209;-72
2023/07/16 10:07:43;;;;;;;3.77;2.23;;;;;;;26.92;65.36;100433.34;5061553;28;20194;-73
2023/07/16 10:10:11;;;;;;;3.37;2.10;;;;;;;27.03;65.11;100434.38;5059204;28;20572;-72
2023/07/16 10:12:37;;;;;;;2.73;1.53;;;;;;;27.16;65.17;100436.91;5060339;28;20858;-72
2023/07/16 10:15:04;;;;;;;3.00;2.00;;;;;;;27.27;65.04;100436.09;5062646;28;20231;-73
2023/07/16 10:17:31;;;;;;;3.43;1.93;;;;;;;27.32;65.37;100436.59;5060670;28;20649;-72
2023/07/16 10:19:57;;;;;;;2.37;1.70;;;;;;;27.36;65.23;100432.75;5059255;28;20206;-73
2023/07/16 10:22:37;;;;;;;3.60;1.90;;;;;;;27.41;64.58;100429.72;5058871;28;20196;-73
2023/07/16 10:25:19;;;;;;;3.40;2.10;;;;;;;27.61;63.87;100433.50;5061413;28;20186;-73
2023/07/16 10:27:46;;;;;;;3.83;1.77;;;;;;;27.89;63.38;100424.19;5060930;28;20803;-73
2023/07/16 10:30:12;;;;;;;2.87;2.00;;;;;;;27.79;64.19;100423.22;5061739;28;20225;-73
2023/07/16 10:32:37;;;;;;;4.13;2.10;;;;;;;27.97;62.17;100428.88;5063507;28;20186;-72
2023/07/16 10:35:05;;;;;;;4.60;1.80;;;;;;;28.04;62.10;100419.44;5063819;28;20179;-72
2023/07/16 10:37:30;;;;;;;5.80;2.23;;;;;;;28.17;62.51;100429.97;5061559;28;20186;-73
2023/07/16 10:39:58;;;;;;;2.50;1.70;;;;;;;28.29;62.54;100426.28;5058925;28;20202;-72
2023/07/16 10:42:25;;;;;;;2.83;1.60;;;;;;;28.29;61.70;100418.31;5062484;28;20603;-73
2023/07/16 10:44:54;;;;;;;2.20;1.53;;;;;;;28.33;62.09;100418.91;5061814;28;20217;-72
2023/07/16 10:47:23;;;;;;;4.13;2.00;;;;;;;28.44;61.88;100413.53;5064017;28;20201;-72
2023/07/16 10:49:49;;;;;;;2.83;1.80;;;;;;;28.40;61.57;100416.56;5061415;28;20215;-72
2023/07/16 10:52:14;;;;;;;3.47;1.70;;;;;;;28.35;62.04;100421.44;5063670;28;20193;-72
2023/07/16 10:54:41;;;;;;;3.47;1.77;;;;;;;28.27;61.91;100416.75;5063104;28;20244;-72
2023/07/16 10:57:06;;;;;;;2.77;1.70;;;;;;;28.24;62.54;100412.50;5061804;28;20264;-72
2023/07/16 10:59:32;;;;;;;2.57;1.60;;;;;;;28.01;61.92;100406.38;5062129;28;20206;-72
2023/07/16 11:01:58;;;;;;;2.20;1.77;;;;;;;27.81;62.58;100408.84;5060666;28;20205;-72
2023/07/16 11:04:23;;;;;;;3.87;1.93;;;;;;;27.31;62.63;100406.50;5062102;28;20194;-73
2023/07/16 11:06:51;;;;;;;2.00;1.70;;;;;;;27.19;63.70;100410.97;5064149;28;20623;-73
2023/07/16 11:09:17;;;;;;;2.07;1.60;;;;;;;27.10;64.00;100406.34;5063468;28;20217;-73
2023/07/16 11:11:42;;;;;;;2.90;2.27;;;;;;;26.77;64.61;100414.09;5062880;28;20269;-72
2023/07/16 11:14:08;;;;;;;2.97;1.70;;;;;;;26.87;63.81;100414.28;5059332;28;20201;-73
2023/07/16 11:16:37;;;;;;;3.10;1.67;;;;;;;26.82;64.53;100413.78;5061100;28;20221;-73